SBBG

Comandante Gustavo Kraemer Airport

Bagé, Brazil
METAR SBBG 192000Z 13015KT 9999 FEW033 23/13 Q1020
Observed Flight Rules
Oct-19 @ 20:00 UTC (7 hours ago) Visual Flight Rules
Wind Visibility Clouds
130° at 15 knots 10,000+ meters
  • Few at 3,300' AGL
Temperatures Readings
Current 23°C / 73°F
Dewpoint 13°C / 55°F
Humidity 53%
Altimeter 30.12" Hg
Pressure 1020 hPa
Elevation 180
METAR SBBG 192000Z 13015KT 9999 FEW033 23/13 Q1020
Observed Flight Rules
Oct-19 @ 20:00 UTC
(7 hours ago)
VFR
Wind Visibility
130° at 15 knots 10,000+ meters
Clouds
  • Few at 3,300' AGL
Temperature Dewpoint
23°C / 73°F 13°C / 55°F
Humidity Altimeter Pressure
53% 30.12" Hg 1020 hPa